»·PEaware :: N5402G KSEE-KCMA

N5402G :: KSEE-KCMA

FLIGHT INFORMATION

Flight Status: Arrived
Operator: Privately registered:
United States
More flights under this callsign
Pilot: Kent W. (37946)
Aircraft: PIPER PA-31/31P NAVAJO CHIEFTAIN
(PA31)
More flights by this aircraft type
Origin: KSEE Gillespie
United States
Destination: KCMA Camarillo
United States
More flights between these airports :: More routes between these airports
Route:
File this flight plan on PilotEdge
Remarks:
Altitude:
(Current/Filed)
0ft
Speed:
(Current/Filed)
0kts
Departed: 25-Jan-23 05:05 PM
Arrived: 25-Jan-23 05:57 PM
Distance/Time
Traveled:
135nm/0:52
Distance/Time
To Go:
Arrived

Flight Plot

Page will automatically refresh every two minutes.

Flight plan parsing failed; only flown route is shown


Map Options




Map Legend


Flown Route
Filed Route
Departure Airport
Arrival Airport
Navaid (VOR, NDB)
Fix

Horizontal Profiles

Position Reports

Time Latitude Longitude Heading Altitude Ground
Speed
25-Jan-23 16:56 32.824788 -116.969452 14 378ft 0kts
25-Jan-23 16:57 32.824788 -116.969452 14 378ft 0kts
25-Jan-23 16:58 32.824788 -116.969452 14 378ft 0kts
25-Jan-23 16:59 32.824788 -116.969452 14 378ft 0kts
25-Jan-23 17:00 32.824659 -116.967779 90 382ft 19kts
25-Jan-23 17:01 32.825121 -116.964470 10 393ft 13kts
25-Jan-23 17:02 32.825892 -116.964367 342 393ft 0kts
25-Jan-23 17:03 32.825892 -116.964367 342 393ft 0kts
25-Jan-23 17:04 32.826159 -116.964464 344 393ft 12kts
25-Jan-23 17:05 32.830084 -116.984273 284 793ft 102kts
25-Jan-23 17:06 32.829911 -117.019673 261 2141ft 113kts
25-Jan-23 17:07 32.825494 -117.058293 269 3531ft 119kts
25-Jan-23 17:08 32.822345 -117.099838 268 4525ft 150kts
25-Jan-23 17:09 32.826517 -117.153615 283 4414ft 176kts
25-Jan-23 17:10 32.834485 -117.211666 283 4347ft 175kts
25-Jan-23 17:11 32.857647 -117.255456 332 4188ft 167kts
25-Jan-23 17:12 32.897028 -117.274243 335 4508ft 160kts
25-Jan-23 17:13 32.938258 -117.291542 336 4861ft 153kts
25-Jan-23 17:14 32.984817 -117.310798 338 5080ft 178kts
25-Jan-23 17:14 33.021209 -117.325608 338 6222ft 158kts
25-Jan-23 17:16 33.049289 -117.371172 296 7342ft 157kts
25-Jan-23 17:17 33.065366 -117.418560 294 8522ft 152kts
25-Jan-23 17:18 33.080524 -117.466044 293 9614ft 157kts
25-Jan-23 17:19 33.096382 -117.516446 292 10495ft 173kts
25-Jan-23 17:19 33.112469 -117.568046 292 10516ft 205kts
25-Jan-23 17:21 33.135537 -117.642024 292 10547ft 198kts
25-Jan-23 17:22 33.154809 -117.703808 292 10533ft 198kts
25-Jan-23 17:23 33.173925 -117.765291 292 10531ft 197kts
25-Jan-23 17:23 33.189890 -117.816740 292 10506ft 198kts
25-Jan-23 17:24 33.208965 -117.878254 291 10511ft 198kts
25-Jan-23 17:26 33.231216 -117.950184 291 10521ft 198kts
25-Jan-23 17:26 33.247082 -118.001613 290 10527ft 198kts
25-Jan-23 17:27 33.266117 -118.063427 290 10534ft 198kts
25-Jan-23 17:28 33.285092 -118.125265 290 10537ft 198kts
25-Jan-23 17:30 33.307159 -118.197265 289 10535ft 198kts
25-Jan-23 17:30 33.322938 -118.248891 289 10531ft 198kts
25-Jan-23 17:31 33.341896 -118.311017 290 10505ft 198kts
25-Jan-23 17:32 33.360838 -118.373149 290 10503ft 198kts
25-Jan-23 17:33 33.384190 -118.432013 310 10536ft 195kts
25-Jan-23 17:34 33.419156 -118.482584 312 10507ft 197kts
25-Jan-23 17:35 33.454430 -118.532819 312 10503ft 197kts
25-Jan-23 17:36 33.489682 -118.583077 312 10504ft 197kts
25-Jan-23 17:37 33.524940 -118.633424 312 10504ft 197kts
25-Jan-23 17:38 33.560136 -118.683743 311 10500ft 197kts
25-Jan-23 17:39 33.595249 -118.734029 311 10500ft 197kts
25-Jan-23 17:40 33.630403 -118.784383 311 10498ft 197kts
25-Jan-23 17:41 33.665561 -118.834939 311 10494ft 197kts
25-Jan-23 17:42 33.700546 -118.885303 312 10493ft 196kts
25-Jan-23 17:43 33.735271 -118.935318 313 10495ft 194kts
25-Jan-23 17:44 33.769696 -118.984909 313 10496ft 192kts
25-Jan-23 17:45 33.811170 -119.016533 359 10514ft 175kts
25-Jan-23 17:46 33.863976 -119.020689 1 9567ft 204kts
25-Jan-23 17:47 33.921771 -119.024925 1 8169ft 212kts
25-Jan-23 17:48 33.978942 -119.028948 2 6826ft 200kts
25-Jan-23 17:49 34.032898 -119.032704 1 5646ft 188kts
25-Jan-23 17:50 34.085932 -119.036707 2 4529ft 192kts
25-Jan-23 17:51 34.136489 -119.040382 359 3228ft 171kts
25-Jan-23 17:52 34.181453 -119.053644 327 1878ft 155kts
25-Jan-23 17:53 34.189888 -119.094871 269 1612ft 117kts
25-Jan-23 17:54 34.196271 -119.128445 17 1179ft 98kts
25-Jan-23 17:55 34.213870 -119.115188 84 309ft 78kts
25-Jan-23 17:56 34.213754 -119.092968 90 70ft 35kts
25-Jan-23 17:57 34.212227 -119.090734 136 70ft 0kts
25-Jan-23 17:58 34.211036 -119.089569 163 70ft 11kts

Navigation Log

Ident Type
Flight plan parsing failed, navigation log unavailable